Terminal Aerodrome Forecast
Issued by NWS Chicago, IL

Home | Current Version | Previous Version | Graphics & Text | Print | Product List | Glossary On
Versions: 1 2 3 4 5 6 7 8 9 10 11 12 13 14 15 16 17 18 19 20 21 22 23 24 25 26 27 28 29 30
000
FTUS43 KLOT 202000 AAA
TAFRFD
TAF AMD
KRFD 202000Z 2020/2118 22013G18KT P6SM FEW150 BKN250
     FM210100 18007KT P6SM BKN150
     FM211000 20007KT P6SM SCT060 BKN100
     FM211500 24011KT P6SM VCSH BKN050=

USA.gov is the U.S. government's official web portal to all federal, state and local government web resources and services.